createdAt,value
2023-06-02T00:00:41.630Z,5.72
2023-06-02T00:03:45.679Z,6.00
2023-06-02T00:06:48.633Z,6.40
2023-06-02T00:09:51.357Z,5.82
2023-06-02T00:12:54.255Z,5.77
2023-06-02T00:15:57.277Z,6.18
2023-06-02T00:19:00.136Z,6.25
2023-06-02T00:22:04.828Z,5.85
2023-06-02T00:25:08.126Z,6.07
2023-06-02T00:28:11.074Z,5.90
2023-06-02T00:31:13.923Z,5.90
2023-06-02T00:34:16.668Z,5.85
2023-06-02T00:37:19.376Z,6.18
2023-06-02T00:40:24.591Z,6.07
2023-06-02T00:43:27.533Z,6.20
2023-06-02T00:46:30.554Z,5.78
2023-06-02T00:49:33.272Z,6.32
2023-06-02T00:52:36.392Z,6.03
2023-06-02T00:55:39.364Z,6.20
2023-06-02T00:58:46.735Z,5.70
2023-06-02T01:01:50.344Z,5.85
2023-06-02T01:04:58.820Z,5.63
2023-06-02T01:08:04.050Z,5.97
2023-06-02T01:11:08.449Z,5.97
2023-06-02T01:14:12.152Z,6.10
2023-06-02T01:17:16.568Z,6.10
2023-06-02T01:20:22.873Z,5.63
2023-06-02T01:23:35.460Z,6.00
2023-06-02T01:26:39.796Z,6.10
2023-06-02T01:29:44.314Z,6.55
2023-06-02T01:33:01.708Z,7.47
2023-06-02T01:36:06.109Z,7.20
2023-06-02T01:39:11.816Z,8.30
2023-06-02T01:42:16.758Z,8.77
2023-06-02T01:45:22.292Z,8.68
2023-06-02T01:48:25.540Z,8.38
2023-06-02T01:51:28.515Z,7.53
2023-06-02T01:54:32.104Z,8.10
2023-06-02T01:57:36.013Z,7.37
2023-06-02T02:00:40.753Z,7.40
2023-06-02T02:03:44.703Z,7.85
2023-06-02T02:06:53.772Z,7.90
2023-06-02T02:09:58.153Z,7.27
2023-06-02T02:13:01.020Z,7.67
2023-06-02T02:16:04.428Z,7.22
2023-06-02T02:19:09.221Z,7.80
2023-06-02T02:22:13.310Z,7.40
2023-06-02T02:25:18.399Z,7.53
2023-06-02T02:28:22.081Z,7.47
2023-06-02T02:31:25.406Z,7.80
2023-06-02T02:34:30.120Z,8.00
2023-06-02T02:37:45.600Z,7.22
2023-06-02T02:40:52.633Z,7.23
2023-06-02T02:43:55.584Z,6.95
2023-06-02T02:47:00.113Z,7.43
2023-06-02T02:50:03.953Z,7.00
2023-06-02T02:53:06.939Z,7.35
2023-06-02T02:56:09.866Z,6.83
2023-06-02T02:59:17.036Z,7.40
2023-06-02T03:02:19.890Z,5.95
2023-06-02T03:05:22.824Z,6.18
2023-06-02T03:08:26.550Z,6.67
2023-06-02T03:11:29.632Z,6.78
2023-06-02T03:14:35.020Z,7.25
2023-06-02T03:17:39.484Z,6.70
2023-06-02T03:20:42.908Z,6.70
2023-06-02T03:23:46.395Z,6.70
2023-06-02T03:26:53.321Z,6.70
2023-06-02T03:29:57.727Z,6.38
2023-06-02T03:33:07.206Z,6.60
2023-06-02T03:36:10.883Z,6.20
2023-06-02T03:39:16.691Z,6.77
2023-06-02T03:42:21.320Z,6.72
2023-06-02T03:45:24.590Z,6.70
2023-06-02T03:48:28.954Z,7.05
2023-06-02T03:51:31.882Z,6.90
2023-06-02T03:54:37.772Z,7.00
2023-06-02T03:57:42.630Z,6.65
2023-06-02T04:00:46.215Z,7.22
2023-06-02T04:03:49.767Z,6.30
2023-06-02T04:06:54.495Z,6.10
2023-06-02T04:09:57.653Z,6.60
2023-06-02T04:13:01.648Z,7.03
2023-06-02T04:16:05.410Z,6.20
2023-06-02T04:19:10.352Z,6.30
2023-06-02T04:22:14.256Z,6.50
2023-06-02T04:25:17.732Z,6.43
2023-06-02T04:28:20.984Z,6.22
2023-06-02T04:31:47.114Z,6.63
2023-06-02T04:34:54.970Z,7.38
2023-06-02T04:37:58.140Z,7.40
2023-06-02T04:41:02.546Z,6.97
2023-06-02T04:44:07.660Z,7.53
2023-06-02T04:47:11.592Z,8.18
2023-06-02T04:50:17.282Z,7.85
2023-06-02T04:53:21.347Z,7.53
2023-06-02T04:56:25.120Z,7.60
2023-06-02T04:59:34.238Z,7.68
2023-06-02T05:02:38.779Z,7.43
2023-06-02T05:05:45.003Z,7.70
2023-06-02T05:08:53.131Z,7.53
2023-06-02T05:11:59.113Z,8.63
2023-06-02T05:15:04.433Z,8.32
2023-06-02T05:18:08.701Z,8.05
2023-06-02T05:21:16.952Z,7.43
2023-06-02T05:24:20.721Z,7.27
2023-06-02T05:27:34.441Z,7.82
2023-06-02T05:30:47.874Z,7.03
2023-06-02T05:34:18.074Z,6.95
2023-06-02T05:37:50.997Z,7.60
2023-06-02T05:41:21.434Z,7.37
2023-06-02T05:44:28.507Z,7.13
2023-06-02T05:47:37.256Z,7.28
2023-06-02T05:50:47.030Z,7.05
2023-06-02T05:53:55.932Z,6.82
2023-06-02T05:57:05.869Z,6.90
2023-06-02T06:00:16.615Z,7.78
2023-06-02T06:07:04.020Z,9.30
2023-06-02T06:10:14.542Z,9.00
2023-06-02T06:18:04.216Z,8.23
2023-06-02T06:21:09.185Z,8.75
2023-06-02T06:27:40.704Z,8.20
2023-06-02T06:30:47.079Z,8.30
2023-06-02T06:33:51.049Z,8.10
2023-06-02T06:36:54.854Z,8.65
2023-06-02T06:39:58.559Z,7.90
2023-06-02T06:43:22.427Z,7.88
2023-06-02T06:46:49.902Z,7.77
2023-06-02T06:50:08.545Z,8.02
2023-06-02T06:53:15.504Z,7.38
2023-06-02T06:56:23.382Z,7.47
2023-06-02T06:59:32.920Z,7.90
2023-06-02T07:02:37.358Z,7.80
2023-06-02T07:06:25.412Z,7.20
2023-06-02T07:10:25.320Z,7.47
2023-06-02T07:14:33.137Z,7.07
2023-06-02T07:18:15.104Z,6.72
2023-06-02T07:21:22.083Z,6.93
2023-06-02T07:24:25.983Z,6.85
2023-06-02T07:27:32.821Z,6.57
2023-06-02T07:31:09.259Z,6.18
2023-06-02T07:34:14.082Z,6.50
2023-06-02T07:37:18.164Z,6.17
2023-06-02T07:40:22.570Z,6.35
2023-06-02T07:43:31.895Z,5.80
2023-06-02T07:46:37.147Z,5.60
2023-06-02T07:49:46.415Z,5.97
2023-06-02T07:52:51.176Z,5.53
2023-06-02T07:55:54.685Z,6.00
2023-06-02T07:59:00.459Z,5.32
2023-06-02T08:02:26.471Z,5.60
2023-06-02T08:05:37.007Z,5.82
2023-06-02T08:08:48.458Z,5.37
2023-06-02T08:11:52.793Z,5.32
2023-06-02T08:15:04.770Z,5.03
2023-06-02T08:18:17.830Z,5.50
2023-06-02T08:21:28.017Z,5.13
2023-06-02T08:24:40.034Z,5.17
2023-06-02T08:27:46.332Z,5.28
2023-06-02T08:30:49.977Z,5.50
2023-06-02T08:34:13.339Z,5.20
2023-06-02T08:37:29.536Z,5.00
2023-06-02T08:40:38.448Z,4.73
2023-06-02T08:43:49.816Z,5.68
2023-06-02T08:46:58.003Z,5.28
2023-06-02T08:50:04.133Z,5.20
2023-06-02T08:53:17.635Z,5.20
2023-06-02T08:56:30.705Z,4.93
2023-06-02T08:59:38.029Z,4.75
2023-06-02T09:02:44.306Z,5.38
2023-06-02T09:05:50.917Z,5.10
2023-06-02T09:08:55.225Z,5.40
2023-06-02T09:12:09.881Z,5.67
2023-06-02T09:15:29.105Z,5.25
2023-06-02T09:18:33.511Z,5.15
2023-06-02T09:21:46.151Z,4.90
2023-06-02T09:24:53.585Z,5.07
2023-06-02T09:28:00.272Z,4.90
2023-06-02T09:31:10.927Z,4.80
2023-06-02T09:34:52.678Z,4.95
2023-06-02T09:38:02.979Z,4.70
2023-06-02T09:41:33.124Z,5.00
2023-06-02T09:44:42.711Z,4.20
2023-06-02T09:47:46.472Z,4.05
2023-06-02T09:50:57.465Z,3.80
2023-06-02T09:54:05.544Z,4.15
2023-06-02T09:57:11.873Z,4.22
2023-06-02T10:00:23.854Z,4.00
2023-06-02T10:03:27.672Z,4.35
2023-06-02T10:06:46.403Z,4.03
2023-06-02T10:10:13.462Z,4.40
2023-06-02T10:13:29.872Z,3.83
2023-06-02T10:17:11.235Z,4.60
2023-06-02T10:20:30.924Z,4.00
2023-06-02T10:24:10.441Z,4.43
2023-06-02T10:27:26.876Z,3.92
2023-06-02T10:30:30.477Z,4.30
2023-06-02T10:33:51.054Z,3.97
2023-06-02T10:37:11.503Z,4.25
2023-06-02T10:40:16.841Z,4.18
2023-06-02T10:43:20.507Z,4.05
2023-06-02T10:46:25.474Z,4.13
2023-06-02T10:50:09.098Z,3.93
2023-06-02T10:53:14.781Z,4.25
2023-06-02T10:56:42.478Z,3.92
2023-06-02T10:59:47.789Z,4.30
2023-06-02T11:02:51.111Z,4.45
2023-06-02T11:06:19.571Z,4.37
2023-06-02T11:09:37.458Z,4.10
2023-06-02T11:12:53.012Z,4.13
2023-06-02T11:16:00.366Z,4.30
2023-06-02T11:19:03.773Z,4.10
2023-06-02T11:22:07.137Z,3.93
2023-06-02T11:25:12.335Z,4.25
2023-06-02T11:28:22.736Z,4.50
2023-06-02T11:31:26.219Z,4.85
2023-06-02T11:34:30.101Z,4.38
2023-06-02T11:37:38.098Z,4.77
2023-06-02T11:40:41.631Z,4.10
2023-06-02T11:43:52.319Z,4.43
2023-06-02T11:46:56.257Z,3.95
2023-06-02T11:50:00.662Z,3.90
2023-06-02T11:53:06.976Z,3.90
2023-06-02T11:56:09.853Z,4.38
2023-06-02T11:59:17.626Z,4.38
2023-06-02T12:02:29.181Z,3.95
2023-06-02T12:05:39.097Z,4.00
2023-06-02T12:08:45.415Z,3.93
2023-06-02T12:11:49.072Z,3.90
2023-06-02T12:14:52.132Z,4.40
2023-06-02T12:17:56.125Z,3.90
2023-06-02T12:21:02.690Z,3.90
2023-06-02T12:24:06.782Z,3.67
2023-06-02T12:27:11.896Z,3.97
2023-06-02T12:30:17.168Z,3.75
2023-06-02T12:33:21.804Z,3.50
2023-06-02T12:36:27.215Z,3.63
2023-06-02T12:39:31.164Z,3.50
2023-06-02T12:42:34.442Z,3.22
2023-06-02T12:45:37.983Z,3.17
2023-06-02T12:48:42.161Z,3.70
2023-06-02T12:51:46.849Z,3.50
2023-06-02T12:54:50.129Z,3.47
2023-06-02T12:57:53.921Z,3.80
2023-06-02T13:00:58.610Z,4.07
2023-06-02T13:04:02.543Z,3.90
2023-06-02T13:07:10.524Z,3.80
2023-06-02T13:10:14.110Z,3.40
2023-06-02T13:13:17.277Z,3.17
2023-06-02T13:16:20.700Z,3.60
2023-06-02T13:19:26.376Z,4.15
2023-06-02T13:22:30.679Z,3.50
2023-06-02T13:25:35.773Z,3.40
2023-06-02T13:28:39.419Z,3.50
2023-06-02T13:31:43.181Z,3.83
2023-06-02T13:35:04.689Z,4.10
2023-06-02T13:38:08.385Z,3.97
2023-06-02T13:41:11.847Z,4.10
2023-06-02T13:44:21.622Z,3.97
2023-06-02T13:47:24.570Z,4.03
2023-06-02T13:50:27.741Z,3.85
2023-06-02T13:53:32.333Z,4.10
2023-06-02T13:56:35.814Z,4.10
2023-06-02T13:59:39.522Z,4.00
2023-06-02T14:02:43.283Z,3.90
2023-06-02T14:05:51.029Z,4.10
2023-06-02T14:08:54.459Z,3.70
2023-06-02T14:11:59.064Z,3.20
2023-06-02T14:15:07.374Z,2.95
2023-06-02T14:18:10.915Z,3.80
2023-06-02T14:21:14.602Z,4.53
2023-06-02T14:24:19.040Z,4.90
2023-06-02T14:27:22.997Z,4.20
2023-06-02T14:30:26.522Z,4.20
2023-06-02T14:33:29.857Z,4.28
2023-06-02T14:36:32.820Z,4.80
2023-06-02T14:39:38.915Z,4.30
2023-06-02T14:42:44.542Z,4.10
2023-06-02T14:45:47.618Z,4.13
2023-06-02T14:48:50.855Z,3.70
2023-06-02T14:51:54.038Z,3.15
2023-06-02T14:54:57.225Z,2.75
2023-06-02T14:58:00.495Z,3.07
2023-06-02T15:01:03.769Z,2.63
2023-06-02T15:04:06.961Z,2.70
2023-06-02T15:07:12.537Z,2.90
2023-06-02T15:10:15.702Z,2.60
2023-06-02T15:13:19.015Z,1.90
2023-06-02T15:16:22.067Z,2.22
2023-06-02T15:19:25.436Z,1.90
2023-06-02T15:22:29.133Z,2.30
2023-06-02T15:25:32.114Z,2.60
2023-06-02T15:28:35.102Z,2.67
2023-06-02T15:31:38.370Z,2.25
2023-06-02T15:34:42.599Z,2.65
2023-06-02T15:37:48.801Z,1.70
2023-06-02T15:40:52.186Z,2.33
2023-06-02T15:43:56.025Z,2.40
2023-06-02T15:47:00.726Z,2.47
2023-06-02T15:50:05.116Z,2.35
2023-06-02T15:53:08.617Z,2.40
2023-06-02T15:56:18.260Z,2.72
2023-06-02T15:59:23.285Z,2.40
2023-06-02T16:02:27.961Z,2.60
2023-06-02T16:05:34.653Z,2.90
2023-06-02T16:08:38.184Z,3.17
2023-06-02T16:11:43.753Z,3.20
2023-06-02T16:14:51.767Z,3.57
2023-06-02T16:17:54.866Z,3.15
2023-06-02T16:20:58.414Z,3.22
2023-06-02T16:24:02.050Z,2.60
2023-06-02T16:27:07.844Z,2.13
2023-06-02T16:30:12.245Z,2.80
2023-06-02T16:33:18.492Z,2.97
2023-06-02T16:36:25.536Z,2.63
2023-06-02T16:39:36.878Z,3.08
2023-06-02T16:42:43.834Z,2.72
2023-06-02T16:45:50.699Z,3.07
2023-06-02T16:48:54.801Z,4.25
2023-06-02T16:51:58.758Z,3.00
2023-06-02T16:55:07.701Z,3.65
2023-06-02T16:58:12.006Z,3.10
2023-06-02T17:01:15.377Z,3.47
2023-06-02T17:04:19.572Z,3.33
2023-06-02T17:07:22.971Z,3.17
2023-06-02T17:10:27.373Z,3.47
2023-06-02T17:13:34.225Z,3.63
2023-06-02T17:16:39.866Z,3.43
2023-06-02T17:19:43.983Z,3.67
2023-06-02T17:22:47.389Z,3.70
2023-06-02T17:25:50.464Z,3.45
2023-06-02T17:28:54.042Z,3.80
2023-06-02T17:31:57.480Z,4.10
2023-06-02T17:35:01.663Z,4.15
2023-06-02T17:38:17.290Z,3.95
2023-06-02T17:41:22.924Z,4.65
2023-06-02T17:44:28.719Z,5.53
2023-06-02T17:47:31.879Z,4.17
2023-06-02T17:50:35.014Z,4.47
2023-06-02T17:53:38.771Z,4.72
2023-06-02T17:56:42.668Z,4.93
2023-06-02T17:59:47.089Z,4.93
2023-06-02T18:02:50.004Z,4.73
2023-06-02T18:05:53.104Z,5.35
2023-06-02T18:08:55.987Z,5.47
2023-06-02T18:11:59.070Z,5.10
2023-06-02T18:15:02.035Z,5.25
2023-06-02T18:18:08.258Z,5.17
2023-06-02T18:21:11.584Z,5.15
2023-06-02T18:24:15.080Z,4.88
2023-06-02T18:27:18.446Z,4.97
2023-06-02T18:30:22.104Z,5.15
2023-06-02T18:33:25.105Z,6.07
2023-06-02T18:36:28.308Z,5.93
2023-06-02T18:39:31.221Z,5.15
2023-06-02T18:42:34.512Z,5.53
2023-06-02T18:45:52.709Z,5.15
2023-06-02T18:48:56.456Z,5.50
2023-06-02T18:52:03.998Z,5.00
2023-06-02T18:55:07.311Z,4.90
2023-06-02T18:58:10.302Z,4.82
2023-06-02T19:01:13.491Z,5.53
2023-06-02T19:04:16.893Z,5.00
2023-06-02T19:07:23.259Z,5.20
2023-06-02T19:10:26.445Z,4.70
2023-06-02T19:13:33.535Z,4.50
2023-06-02T19:16:37.061Z,4.18
2023-06-02T19:19:40.374Z,4.00
2023-06-02T19:22:43.651Z,4.13
2023-06-02T19:25:47.054Z,4.30
2023-06-02T19:28:51.273Z,4.25
2023-06-02T19:31:57.108Z,3.85
2023-06-02T19:35:03.314Z,4.40
2023-06-02T19:38:06.301Z,3.40
2023-06-02T19:41:10.587Z,4.00
2023-06-02T19:44:13.291Z,3.33
2023-06-02T19:47:16.235Z,3.78
2023-06-02T19:50:20.803Z,4.57
2023-06-02T19:53:24.528Z,4.05
2023-06-02T19:56:30.089Z,3.90
2023-06-02T19:59:34.377Z,3.80
2023-06-02T20:02:38.509Z,3.63
2023-06-02T20:05:44.634Z,3.90
2023-06-02T20:08:47.992Z,3.70
2023-06-02T20:11:51.276Z,3.90
2023-06-02T20:14:54.344Z,4.00
2023-06-02T20:17:57.548Z,3.90
2023-06-02T20:21:00.694Z,3.73
2023-06-02T20:24:04.930Z,4.13
2023-06-02T20:27:08.297Z,4.13
2023-06-02T20:30:11.455Z,4.45
2023-06-02T20:33:14.700Z,3.80
2023-06-02T20:36:17.529Z,4.00
2023-06-02T20:39:24.882Z,4.40
2023-06-02T20:42:28.060Z,4.63
2023-06-02T20:45:31.338Z,3.70
2023-06-02T20:48:34.368Z,3.92
2023-06-02T20:51:37.453Z,4.07
2023-06-02T20:54:40.365Z,3.90
2023-06-02T20:57:43.234Z,4.25
2023-06-02T21:00:46.112Z,4.00
2023-06-02T21:03:49.007Z,4.10
2023-06-02T21:06:51.997Z,4.03
2023-06-02T21:09:55.279Z,3.75
2023-06-02T21:12:58.042Z,4.00
2023-06-02T21:16:01.730Z,4.00
2023-06-02T21:19:07.157Z,3.72
2023-06-02T21:22:09.970Z,3.63
2023-06-02T21:25:12.867Z,4.65
2023-06-02T21:28:15.921Z,4.07
2023-06-02T21:31:22.000Z,3.85
2023-06-02T21:34:24.732Z,4.20
2023-06-02T21:37:28.731Z,3.70
2023-06-02T21:40:33.937Z,3.83
2023-06-02T21:43:42.853Z,3.47
2023-06-02T21:46:45.809Z,3.78
2023-06-02T21:49:48.554Z,4.10
2023-06-02T21:52:51.416Z,3.67
2023-06-02T21:55:54.335Z,3.95
2023-06-02T21:58:57.575Z,4.10
2023-06-02T22:02:00.357Z,3.97
2023-06-02T22:05:03.305Z,3.58
2023-06-02T22:08:06.893Z,4.10
2023-06-02T22:11:09.657Z,3.40
2023-06-02T22:14:12.330Z,3.70
2023-06-02T22:17:15.161Z,3.88
2023-06-02T22:20:18.121Z,3.70
2023-06-02T22:23:20.931Z,3.43
2023-06-02T22:26:23.766Z,3.85
2023-06-02T22:29:26.626Z,3.88
2023-06-02T22:32:29.573Z,3.78
2023-06-02T22:35:32.478Z,3.80
2023-06-02T22:38:35.657Z,3.60
2023-06-02T22:41:38.830Z,4.07
2023-06-02T22:44:41.785Z,4.03
2023-06-02T22:47:44.914Z,4.00
2023-06-02T22:50:48.161Z,4.05
2023-06-02T22:53:51.328Z,3.70
2023-06-02T22:56:55.951Z,3.53
2023-06-02T22:59:59.435Z,3.83
2023-06-02T23:03:02.852Z,4.03
2023-06-02T23:06:06.031Z,3.75
2023-06-02T23:09:08.963Z,3.60
2023-06-02T23:12:12.234Z,3.78
2023-06-02T23:15:19.199Z,3.67
2023-06-02T23:18:22.479Z,3.85
2023-06-02T23:21:26.784Z,4.10
2023-06-02T23:24:29.650Z,3.97
2023-06-02T23:27:32.428Z,3.97
2023-06-02T23:30:35.260Z,4.10
2023-06-02T23:33:38.983Z,3.83
2023-06-02T23:36:41.924Z,4.00
2023-06-02T23:39:44.822Z,3.70
2023-06-02T23:42:47.817Z,3.75
2023-06-02T23:45:50.696Z,3.42
2023-06-02T23:48:53.434Z,3.25
2023-06-02T23:51:56.173Z,3.70
2023-06-02T23:54:59.118Z,3.30
2023-06-02T23:58:01.876Z,3.33
